Latest Weather Observations for Cairns

IDQ60801

Issued at 12:32 pm EST Wednesday 10 February 2016 (issued every 30 minutes, with the page automatically refreshed every 10 minutes)

About weather observations | Map of weather stations | Latest weather observations for QLD | Other Formats
Station Details ID: 031011 Name: CAIRNS AERO Lat: -16.87 Lon: 145.75 Height: 2.22 m
Data from the previous 72 hours. | See also: Recent months at Cairns
Date/Time
EST
Temp
°C
App
Temp
°C
Dew
Point
Rel
Hum
%
Delta-T
°C
Wind Press
QNH
hPa
Press
MSL
hPa
Rain
since 9 am
mm
Dir
 
Spd
km/h
Gust
km/h
Spd
kts
Gust
kts
10/12:00pm 27.4 29.9 23.2 78 2.9 S 15 26 8 14 1008.1 1008.0 1.2
10/11:57am 26.8 29.5 23.5 82 2.3 S 15 26 8 14 1008.1 1008.0 1.2
10/11:51am 26.1 29.0 23.8 87 1.6 S 15 22 8 12 1008.2 1008.1 1.2
10/11:30am 26.0 26.1 24.6 92 1.0 SE 32 48 17 26 1008.4 1008.3 0.0
10/11:26am 27.1 28.0 24.0 83 2.1 SSE 26 48 14 26 1008.4 1008.3 0.0
10/11:00am 30.8 33.5 23.5 65 5.0 S 15 22 8 12 1008.6 1008.5 0.0
10/10:30am 28.8 31.5 22.8 70 4.1 S 13 19 7 10 1008.8 1008.7 0.0
10/10:00am 28.3 30.0 23.0 73 3.6 S 19 30 10 16 1009.0 1008.9 0.0
10/09:30am 29.1 31.3 23.3 71 4.0 SSE 17 22 9 12 1009.0 1008.9 0.0
10/09:00am 28.7 31.5 23.6 74 3.5 SSE 15 24 8 13 1009.1 1009.0 7.0
10/08:30am 28.0 31.0 23.4 76 3.2 S 13 20 7 11 1008.9 1008.8 7.0
10/08:00am 27.3 29.9 23.3 79 2.7 SSE 15 20 8 11 1008.6 1008.5 7.0
10/07:30am 27.3 29.6 22.7 76 3.1 S 15 22 8 12 1008.2 1008.1 7.0
10/07:00am 26.8 29.3 22.4 77 3.0 S 13 20 7 11 1007.9 1007.8 7.0
10/06:30am 26.2 28.8 22.7 81 2.4 SSE 13 19 7 10 1007.6 1007.5 7.0
10/06:00am 26.0 28.4 22.9 83 2.1 S 15 26 8 14 1007.4 1007.3 7.0
10/05:30am 25.8 28.9 22.9 84 2.0 SSE 11 17 6 9 1007.1 1007.0 7.0
10/05:00am 26.0 28.5 23.1 84 2.0 SSE 15 26 8 14 1006.9 1006.8 7.0
10/04:30am 26.2 28.3 23.1 83 2.1 S 17 26 9 14 1006.6 1006.5 7.0
10/04:00am 26.3 29.1 23.0 82 2.2 S 13 20 7 11 1006.6 1006.5 7.0
10/03:30am 25.9 29.5 23.8 88 1.4 ESE 11 15 6 8 1006.8 1006.7 7.0
10/03:00am 25.9 29.4 23.6 87 1.6 ESE 11 13 6 7 1006.9 1006.8 7.0
10/02:30am 26.7 29.8 22.8 79 2.6 S 11 15 6 8 1006.9 1006.8 7.0
10/02:00am 26.1 29.6 23.6 86 1.7 SE 11 15 6 8 1007.0 1006.9 7.0
10/01:30am 26.7 29.7 23.4 82 2.3 SSE 13 20 7 11 1007.1 1007.0 7.0
10/01:00am 27.0 30.1 23.5 81 2.4 S 13 20 7 11 1007.6 1007.5 7.0
10/12:30am 27.1 30.0 23.1 79 2.7 SSW 13 26 7 14 1008.4 1008.3 7.0
10/12:00am 27.0 30.1 23.5 81 2.4 S 13 19 7 10 1008.6 1008.5 7.0
 
Date/Time
EST
Temp
°C
App
Temp
°C
Dew
Point
Rel
Hum
%
Delta-T
°C
Wind Press
QNH
hPa
Press
MSL
hPa
Rain
since 9 am
mm
Dir
 
Spd
km/h
Gust
km/h
Spd
kts
Gust
kts
09/11:30pm 27.0 30.5 23.5 81 2.4 S 11 17 6 9 1009.1 1009.0 7.0
09/11:00pm 27.0 29.1 23.7 82 2.3 SSE 19 30 10 16 1009.1 1009.0 7.0
09/10:30pm 27.4 31.0 23.8 81 2.5 S 11 17 6 9 1009.4 1009.3 7.0
09/10:00pm 27.5 30.2 23.5 79 2.7 S 15 26 8 14 1009.2 1009.1 7.0
09/09:30pm 27.2 30.8 24.3 84 2.0 S 13 19 7 10 1008.9 1008.8 7.0
09/09:00pm 26.9 30.6 24.5 87 1.7 S 13 19 7 10 1008.7 1008.6 7.0
09/08:30pm 27.4 30.6 24.3 83 2.1 S 15 24 8 13 1008.6 1008.5 7.0
09/08:00pm 27.4 29.6 24.3 83 2.1 SSE 20 28 11 15 1008.2 1008.1 7.0
09/07:30pm 27.6 30.5 24.4 83 2.2 SE 17 28 9 15 1008.0 1007.9 7.0
09/07:00pm 27.6 30.5 24.4 83 2.2 SSE 17 22 9 12 1007.6 1007.5 7.0
09/06:30pm 27.9 30.8 24.5 82 2.4 SSE 17 20 9 11 1007.2 1007.1 6.8
09/06:00pm 28.5 31.0 24.7 80 2.7 SSE 20 28 11 15 1006.7 1006.6 6.8
09/05:30pm 28.7 30.3 24.5 78 2.9 SE 24 32 13 17 1006.3 1006.2 6.8
09/05:00pm 28.4 31.6 25.0 82 2.4 SSE 17 26 9 14 1006.0 1005.9 6.8
09/04:30pm 28.6 31.5 25.4 83 2.3 S 20 28 11 15 1006.1 1006.0 6.8
09/04:00pm 28.4 31.3 23.8 76 3.2 SSE 15 24 8 13 1006.3 1006.2 6.8
09/03:30pm 26.9 30.2 25.1 90 1.3 S 17 24 9 13 1006.5 1006.4 6.8
09/03:23pm 26.6 30.2 25.0 91 1.1 S 15 24 8 13 1006.6 1006.5 6.8
09/03:12pm 26.5 30.2 25.1 92 1.0 S 15 24 8 13 1006.9 1006.8 6.8
09/03:00pm 26.3 30.0 25.1 93 0.8 SSW 15 26 8 14 1007.4 1007.3 6.2
09/02:30pm 26.0 29.3 25.1 95 0.6 SSE 17 24 9 13 1007.7 1007.6 4.0
09/02:00pm 26.6 29.6 25.6 94 0.7 SSE 20 30 11 16 1007.9 1007.8 1.6
09/01:30pm 27.6 31.5 25.4 88 1.5 SSW 15 24 8 13 1008.1 1008.0 1.4
09/01:00pm 27.1 29.8 25.1 89 1.4 SSE 20 28 11 15 1008.3 1008.2 1.4
09/12:52pm 26.9 29.1 25.5 92 1.0 SSE 24 33 13 18 1008.5 1008.4 1.4
09/12:30pm 26.9 28.6 25.9 94 0.7 SE 28 35 15 19 1008.8 1008.7 1.0
09/12:17pm 27.4 29.2 26.0 92 1.0 SE 28 39 15 21 1008.8 1008.7 0.6
09/12:00pm 27.8 30.1 25.6 88 1.6 SE 24 35 13 19 1008.8 1008.7 0.6
09/11:30am 29.4 30.7 25.2 78 3.0 SE 28 35 15 19 1008.9 1008.8 0.2
09/11:00am 28.0 28.6 25.4 86 1.8 SSE 32 37 17 20 1009.1 1009.0 0.2
09/10:30am 30.9 32.9 24.5 68 4.5 SSE 22 32 12 17 1009.1 1009.0 0.2
09/10:00am 29.6 33.0 24.7 75 3.4 S 15 22 8 12 1009.5 1009.4 0.2
09/09:30am 29.6 31.6 24.0 72 3.9 SSE 20 32 11 17 1009.5 1009.4 0.2
09/09:00am 29.2 31.6 23.6 72 3.9 SSE 17 26 9 14 1009.2 1009.1 1.2
09/08:30am 28.1 31.4 24.5 81 2.5 S 15 22 8 12 1009.0 1008.9 1.2
09/08:00am 27.4 30.5 24.1 82 2.3 SSE 15 20 8 11 1008.6 1008.5 1.2
09/07:30am 26.6 29.7 23.5 83 2.1 S 13 24 7 13 1008.6 1008.5 1.2
09/07:00am 26.0 28.1 23.1 84 2.0 S 17 26 9 14 1008.6 1008.5 1.2
09/06:30am 25.1 27.4 23.5 91 1.1 SSE 17 24 9 13 1008.1 1008.0 1.2
09/06:00am 25.0 27.3 23.4 91 1.1 SSE 17 28 9 15 1007.8 1007.7 1.2
09/05:30am 25.2 27.4 23.3 89 1.3 S 17 26 9 14 1007.5 1007.4 1.2
09/05:00am 24.7 26.8 23.7 94 0.7 SSE 19 28 10 15 1007.3 1007.2 1.2
09/04:30am 24.6 26.3 23.4 93 0.8 SSE 20 30 11 16 1007.2 1007.1 1.2
09/04:00am 24.4 26.4 23.0 92 0.9 S 17 26 9 14 1007.3 1007.2 1.2
09/03:30am 24.8 26.8 23.6 93 0.8 S 19 30 10 16 1007.6 1007.5 0.6
09/03:14am 24.6 26.5 23.7 95 0.6 SSE 20 33 11 18 1008.3 1008.2 0.6
09/03:00am 24.9 26.2 24.0 95 0.6 SSE 24 39 13 21 1008.6 1008.5 0.0
09/02:30am 25.8 26.2 23.8 89 1.4 SSE 28 35 15 19 1008.4 1008.3 0.0
09/02:00am 26.7 28.9 24.2 86 1.7 SSE 20 32 11 17 1008.4 1008.3 0.0
09/01:30am 27.0 29.8 23.7 82 2.3 SSE 15 22 8 12 1008.5 1008.4 0.0
09/01:00am 27.7 30.4 24.1 81 2.5 SSE 17 24 9 13 1008.4 1008.3 0.0
09/12:30am 28.2 32.1 25.4 85 2.0 SSE 15 22 8 12 1008.5 1008.4 0.0
09/12:00am 28.3 33.6 25.3 84 2.1 S 7 13 4 7 1008.6 1008.5 0.0
 
Date/Time
EST
Temp
°C
App
Temp
°C
Dew
Point
Rel
Hum
%
Delta-T
°C
Wind Press
QNH
hPa
Press
MSL
hPa
Rain
since 9 am
mm
Dir
 
Spd
km/h
Gust
km/h
Spd
kts
Gust
kts
08/11:30pm 28.5 33.2 25.5 84 2.1 S 11 15 6 8 1009.0 1008.9 0.0
08/11:00pm 28.5 33.8 25.3 83 2.3 SSW 7 13 4 7 1009.6 1009.5 0.0
08/10:30pm 28.5 34.3 25.7 85 2.0 SSW 6 9 3 5 1009.4 1009.3 0.0
08/10:00pm 28.5 33.2 25.5 84 2.1 S 11 15 6 8 1009.0 1008.9 0.0
08/09:30pm 28.7 34.4 25.9 85 2.0 S 7 11 4 6 1008.7 1008.6 0.0
08/09:00pm 29.0 34.0 26.0 84 2.1 SSE 11 15 6 8 1008.5 1008.4 0.0
08/08:30pm 29.1 33.8 26.1 84 2.1 SSE 13 20 7 11 1008.2 1008.1 0.0
08/08:00pm 29.5 33.6 25.7 80 2.7 SE 15 17 8 9 1008.0 1007.9 0.0
08/07:30pm 29.6 33.6 25.6 79 2.8 SE 15 19 8 10 1008.1 1008.0 0.0
08/07:00pm 29.7 33.2 25.4 78 3.0 SE 17 20 9 11 1007.5 1007.4 0.0
08/06:30pm 29.9 33.4 25.4 77 3.2 SE 17 22 9 12 1007.4 1007.3 0.0
08/06:00pm 30.3 33.3 25.6 76 3.3 SE 20 28 11 15 1007.2 1007.1 0.0
08/05:30pm 31.1 32.7 25.2 71 4.2 SE 26 35 14 19 1007.0 1006.9 0.0
08/05:00pm 32.3 35.3 25.6 67 4.8 E 20 28 11 15 1006.3 1006.2 0.0
08/04:30pm 32.1 34.9 25.2 67 4.9 ESE 20 30 11 16 1006.2 1006.1 0.0
08/04:00pm 32.8 36.2 25.3 64 5.3 ESE 17 24 9 13 1005.7 1005.6 0.0
08/03:30pm 33.3 36.5 25.8 65 5.4 ESE 20 30 11 16 1005.5 1005.4 0.0
08/03:00pm 32.9 36.4 25.4 64 5.3 SE 17 24 9 13 1005.6 1005.5 0.0
08/02:30pm 32.9 36.0 25.4 64 5.3 E 19 32 10 17 1005.8 1005.7 0.0
08/02:00pm 33.6 37.0 25.3 62 5.9 SSE 17 26 9 14 1006.1 1006.0 0.0
08/01:30pm 34.0 36.5 25.9 62 5.8 SE 24 33 13 18 1006.4 1006.3 0.0
08/01:00pm 34.2 38.3 26.4 64 5.6 SE 17 30 9 16 1007.0 1006.9 0.0
08/12:30pm 33.3 38.8 27.3 71 4.4 E 13 24 7 13 1007.8 1007.7 0.0
08/12:00pm 33.5 38.5 26.5 67 5.0 ESE 13 17 7 9 1008.2 1008.1 0.0
08/11:30am 32.7 37.3 26.0 68 4.8 SSE 13 19 7 10 1008.7 1008.6 0.0
08/11:00am 32.1 36.6 26.4 72 4.1 SSE 15 20 8 11 1009.1 1009.0 0.0
08/10:30am 32.4 36.5 27.2 74 3.8 SE 20 26 11 14 1009.4 1009.3 0.0
08/10:00am 32.3 36.4 26.4 71 4.2 SSE 17 22 9 12 1009.4 1009.3 0.0
08/09:30am 31.5 35.2 25.8 72 4.1 ESE 17 19 9 10 1009.8 1009.7 0.0
08/09:00am 31.6 37.3 27.1 77 3.3 SSE 11 15 6 8 1009.6 1009.5 0.0
08/08:30am 29.8 33.7 24.9 75 3.4 SSE 13 19 7 10 1009.4 1009.3 0.0
08/08:00am 30.0 34.7 25.5 77 3.2 SE 11 15 6 8 1009.3 1009.2 0.0
08/07:30am 29.5 33.3 25.3 78 3.0 SSE 15 19 8 10 1009.0 1008.9 0.0
08/07:00am 28.7 33.4 24.9 80 2.7 SSE 9 15 5 8 1008.5 1008.4 0.0
08/06:30am 27.4 34.1 25.4 89 1.4 CALM 0 0 0 0 1007.9 1007.8 0.0
08/06:00am 26.9 33.7 25.5 92 1.0 CALM 0 0 0 0 1007.4 1007.3 0.0
08/05:30am 26.9 33.8 25.7 93 0.8 CALM 0 0 0 0 1007.1 1007.0 0.0
08/05:00am 27.2 34.0 25.6 91 1.1 CALM 0 0 0 0 1006.9 1006.8 0.0
08/04:30am 27.1 32.7 24.9 88 1.5 SE 4 9 2 5 1007.0 1006.9 0.0
08/04:00am 27.3 32.6 25.3 89 1.4 SE 7 11 4 6 1007.0 1006.9 0.0
08/03:30am 27.4 33.7 25.4 89 1.4 SE 2 9 1 5 1007.0 1006.9 0.0
08/03:00am 27.6 34.1 25.6 89 1.4 S 2 9 1 5 1007.1 1007.0 0.0
08/02:30am 27.3 33.4 25.7 91 1.1 W 4 6 2 3 1007.4 1007.3 0.0
08/02:00am 27.6 33.2 25.4 88 1.5 W 6 9 3 5 1007.7 1007.6 0.0
08/01:30am 27.6 34.1 25.0 86 1.8 CALM 0 0 0 0 1007.8 1007.7 0.0
08/01:00am 27.6 33.8 25.2 87 1.7 WSW 2 7 1 4 1007.9 1007.8 0.0
08/12:30am 27.9 32.3 25.1 85 2.0 SE 11 15 6 8 1008.1 1008.0 0.0
08/12:00am 27.9 31.6 25.1 85 2.0 SE 15 17 8 9 1008.3 1008.2 0.0
 
Date/Time
EST
Temp
°C
App
Temp
°C
Dew
Point
Rel
Hum
%
Delta-T
°C
Wind Press
QNH
hPa
Press
MSL
hPa
Rain
since 9 am
mm
Dir
 
Spd
km/h
Gust
km/h
Spd
kts
Gust
kts
07/11:30pm 28.1 31.6 24.9 83 2.2 SE 15 19 8 10 1008.4 1008.3 0.0
07/11:00pm 28.5 33.6 24.9 81 2.5 ESE 7 19 4 10 1008.6 1008.5 0.0
07/10:30pm 28.3 33.7 25.5 85 2.0 NW 7 9 4 5 1008.6 1008.5 0.0
07/10:00pm 29.2 34.1 24.7 77 3.1 SE 7 13 4 7 1008.5 1008.4 0.0
07/09:30pm 29.5 34.1 24.8 76 3.3 SE 9 15 5 8 1008.3 1008.2 0.0
07/09:00pm 28.9 33.5 25.3 81 2.5 SE 11 15 6 8 1007.8 1007.7 0.0
07/08:30pm 29.3 33.7 24.4 75 3.4 SSE 9 11 5 6 1007.4 1007.3 0.0
07/08:00pm 30.0 36.2 24.6 73 3.8 CALM 0 6 0 3 1007.1 1007.0 0.0
07/07:30pm 30.2 35.3 25.0 73 3.7 SW 7 11 4 6 1006.7 1006.6 0.0
07/07:00pm 30.0 37.0 27.8 88 1.6 WSW 7 7 4 4 1006.4 1006.3 0.0
07/06:30pm 30.4 37.8 27.6 85 2.0 NNE 4 7 2 4 1006.3 1006.2 0.0
07/06:00pm 30.6 37.7 27.6 84 2.2 NE 6 7 3 4 1006.0 1005.9 0.0
07/05:30pm 30.9 37.3 27.5 82 2.5 NE 9 13 5 7 1005.7 1005.6 0.0
07/05:00pm 31.5 37.5 27.4 79 3.0 NE 11 20 6 11 1005.3 1005.2 0.0
07/04:30pm 31.6 37.3 27.5 79 3.0 NE 13 19 7 10 1004.5 1004.4 0.0
07/04:00pm 31.6 37.4 27.7 80 2.8 N 13 19 7 10 1004.4 1004.3 0.0
07/03:30pm 32.3 38.2 27.3 75 3.6 NNE 11 15 6 8 1004.5 1004.4 0.0
07/03:00pm 32.5 37.8 27.0 73 4.0 N 13 17 7 9 1004.5 1004.4 0.0
07/02:30pm 32.5 38.2 27.5 75 3.6 N 13 20 7 11 1004.6 1004.5 0.0
07/02:00pm 32.4 37.6 26.9 73 4.0 N 13 19 7 10 1004.9 1004.8 0.0
07/01:30pm 32.4 37.3 26.9 73 4.0 N 15 22 8 12 1005.4 1005.3 0.0
07/01:00pm 31.7 36.8 27.2 77 3.3 N 15 22 8 12 1005.8 1005.7 0.0

Other Formats:

Comma delimited format used in spreadsheet applications
http://www.bom.gov.au/fwo/IDQ60801/IDQ60801.94287.axf

JavaScript Object Notation format (JSON) in row-major order
http://www.bom.gov.au/fwo/IDQ60801/IDQ60801.94287.json